sensor_id;sensor_type;location;lat;lon;timestamp;P1;durP1;ratioP1;P2;durP2;ratioP2
35959;SDS011;22043;50.970;7.192;2023-09-12T00:00:05;18.10;;;8.38;;
35959;SDS011;22043;50.970;7.192;2023-09-12T00:02:37;16.00;;;7.80;;
35959;SDS011;22043;50.970;7.192;2023-09-12T00:05:02;14.30;;;7.97;;
35959;SDS011;22043;50.970;7.192;2023-09-12T00:07:29;16.38;;;8.75;;
35959;SDS011;22043;50.970;7.192;2023-09-12T00:09:55;14.02;;;8.25;;
35959;SDS011;22043;50.970;7.192;2023-09-12T00:12:22;15.63;;;8.98;;
35959;SDS011;22043;50.970;7.192;2023-09-12T00:14:48;15.30;;;8.85;;
35959;SDS011;22043;50.970;7.192;2023-09-12T00:17:13;14.88;;;8.75;;
35959;SDS011;22043;50.970;7.192;2023-09-12T00:19:38;16.95;;;9.77;;
35959;SDS011;22043;50.970;7.192;2023-09-12T00:22:04;16.85;;;9.15;;
35959;SDS011;22043;50.970;7.192;2023-09-12T00:24:29;14.95;;;8.30;;
35959;SDS011;22043;50.970;7.192;2023-09-12T00:26:55;22.40;;;8.75;;
35959;SDS011;22043;50.970;7.192;2023-09-12T00:29:20;15.23;;;10.25;;
35959;SDS011;22043;50.970;7.192;2023-09-12T00:31:46;15.35;;;8.55;;
35959;SDS011;22043;50.970;7.192;2023-09-12T00:34:15;14.98;;;8.63;;
35959;SDS011;22043;50.970;7.192;2023-09-12T00:36:42;14.57;;;7.97;;
35959;SDS011;22043;50.970;7.192;2023-09-12T00:39:07;13.30;;;8.35;;
35959;SDS011;22043;50.970;7.192;2023-09-12T00:41:33;14.75;;;8.88;;
35959;SDS011;22043;50.970;7.192;2023-09-12T00:43:58;14.30;;;8.60;;
35959;SDS011;22043;50.970;7.192;2023-09-12T00:46:23;14.82;;;8.18;;
35959;SDS011;22043;50.970;7.192;2023-09-12T00:48:49;13.88;;;8.63;;
35959;SDS011;22043;50.970;7.192;2023-09-12T00:51:15;13.25;;;8.63;;
35959;SDS011;22043;50.970;7.192;2023-09-12T00:53:41;15.25;;;8.55;;
35959;SDS011;22043;50.970;7.192;2023-09-12T00:56:06;13.70;;;9.07;;
35959;SDS011;22043;50.970;7.192;2023-09-12T00:58:32;20.08;;;10.32;;
35959;SDS011;22043;50.970;7.192;2023-09-12T01:00:58;19.27;;;9.82;;
35959;SDS011;22043;50.970;7.192;2023-09-12T01:03:24;18.95;;;10.38;;
35959;SDS011;22043;50.970;7.192;2023-09-12T01:05:49;17.80;;;10.15;;
35959;SDS011;22043;50.970;7.192;2023-09-12T01:08:16;18.80;;;10.93;;
35959;SDS011;22043;50.970;7.192;2023-09-12T01:10:41;15.98;;;10.52;;
35959;SDS011;22043;50.970;7.192;2023-09-12T01:13:11;20.33;;;9.88;;
35959;SDS011;22043;50.970;7.192;2023-09-12T01:15:38;18.63;;;10.43;;
35959;SDS011;22043;50.970;7.192;2023-09-12T01:18:03;16.92;;;9.75;;
35959;SDS011;22043;50.970;7.192;2023-09-12T01:20:30;29.60;;;10.68;;
35959;SDS011;22043;50.970;7.192;2023-09-12T01:23:07;15.65;;;10.02;;
35959;SDS011;22043;50.970;7.192;2023-09-12T01:28:28;20.67;;;10.13;;
35959;SDS011;22043;50.970;7.192;2023-09-12T01:30:55;17.30;;;8.90;;
35959;SDS011;22043;50.970;7.192;2023-09-12T01:33:23;15.98;;;10.07;;
35959;SDS011;22043;50.970;7.192;2023-09-12T01:35:49;15.27;;;9.65;;
35959;SDS011;22043;50.970;7.192;2023-09-12T01:38:15;16.17;;;8.70;;
35959;SDS011;22043;50.970;7.192;2023-09-12T01:43:14;14.00;;;8.52;;
35959;SDS011;22043;50.970;7.192;2023-09-12T01:45:42;15.52;;;8.02;;
35959;SDS011;22043;50.970;7.192;2023-09-12T01:48:07;17.00;;;8.73;;
35959;SDS011;22043;50.970;7.192;2023-09-12T01:50:33;14.73;;;8.18;;
35959;SDS011;22043;50.970;7.192;2023-09-12T01:52:59;13.55;;;8.02;;
35959;SDS011;22043;50.970;7.192;2023-09-12T01:55:25;13.23;;;7.40;;
35959;SDS011;22043;50.970;7.192;2023-09-12T01:57:51;13.43;;;6.72;;
35959;SDS011;22043;50.970;7.192;2023-09-12T02:00:17;13.20;;;6.50;;
35959;SDS011;22043;50.970;7.192;2023-09-12T02:02:43;13.25;;;6.00;;
35959;SDS011;22043;50.970;7.192;2023-09-12T02:05:11;9.70;;;4.93;;
35959;SDS011;22043;50.970;7.192;2023-09-12T02:07:41;9.65;;;5.30;;
35959;SDS011;22043;50.970;7.192;2023-09-12T02:10:06;10.02;;;4.32;;
35959;SDS011;22043;50.970;7.192;2023-09-12T02:12:32;11.60;;;4.82;;
35959;SDS011;22043;50.970;7.192;2023-09-12T02:14:58;9.63;;;4.97;;
35959;SDS011;22043;50.970;7.192;2023-09-12T02:17:23;13.55;;;4.43;;
35959;SDS011;22043;50.970;7.192;2023-09-12T02:19:49;8.52;;;4.75;;
35959;SDS011;22043;50.970;7.192;2023-09-12T02:22:14;7.68;;;4.78;;
35959;SDS011;22043;50.970;7.192;2023-09-12T02:24:40;8.30;;;5.30;;
35959;SDS011;22043;50.970;7.192;2023-09-12T02:27:05;8.45;;;4.38;;
35959;SDS011;22043;50.970;7.192;2023-09-12T02:29:30;9.35;;;5.82;;
35959;SDS011;22043;50.970;7.192;2023-09-12T02:31:58;10.20;;;6.57;;
35959;SDS011;22043;50.970;7.192;2023-09-12T02:34:23;11.13;;;5.18;;
35959;SDS011;22043;50.970;7.192;2023-09-12T02:36:49;10.63;;;6.10;;
35959;SDS011;22043;50.970;7.192;2023-09-12T02:39:14;16.45;;;6.95;;
35959;SDS011;22043;50.970;7.192;2023-09-12T02:41:40;11.55;;;6.15;;
35959;SDS011;22043;50.970;7.192;2023-09-12T02:44:06;10.98;;;5.90;;
35959;SDS011;22043;50.970;7.192;2023-09-12T02:46:32;10.40;;;6.05;;
35959;SDS011;22043;50.970;7.192;2023-09-12T02:48:58;10.10;;;5.60;;
35959;SDS011;22043;50.970;7.192;2023-09-12T02:51:25;10.30;;;5.15;;
35959;SDS011;22043;50.970;7.192;2023-09-12T02:53:50;9.57;;;5.57;;
35959;SDS011;22043;50.970;7.192;2023-09-12T02:56:16;9.70;;;5.00;;
35959;SDS011;22043;50.970;7.192;2023-09-12T02:58:41;14.23;;;6.32;;
35959;SDS011;22043;50.970;7.192;2023-09-12T03:01:07;12.63;;;7.63;;
35959;SDS011;22043;50.970;7.192;2023-09-12T03:03:32;10.13;;;5.45;;
35959;SDS011;22043;50.970;7.192;2023-09-12T03:05:58;9.70;;;5.40;;
35959;SDS011;22043;50.970;7.192;2023-09-12T03:08:24;9.90;;;5.35;;
35959;SDS011;22043;50.970;7.192;2023-09-12T03:10:56;8.57;;;5.38;;
35959;SDS011;22043;50.970;7.192;2023-09-12T03:13:25;8.32;;;4.85;;
35959;SDS011;22043;50.970;7.192;2023-09-12T03:15:51;11.93;;;4.97;;
35959;SDS011;22043;50.970;7.192;2023-09-12T03:18:17;8.57;;;4.53;;
35959;SDS011;22043;50.970;7.192;2023-09-12T03:20:42;7.13;;;4.40;;
35959;SDS011;22043;50.970;7.192;2023-09-12T03:23:08;6.75;;;4.15;;
35959;SDS011;22043;50.970;7.192;2023-09-12T03:25:37;12.20;;;4.70;;
35959;SDS011;22043;50.970;7.192;2023-09-12T03:28:06;9.20;;;4.05;;
35959;SDS011;22043;50.970;7.192;2023-09-12T03:30:32;6.43;;;4.03;;
35959;SDS011;22043;50.970;7.192;2023-09-12T03:32:58;7.13;;;3.92;;
35959;SDS011;22043;50.970;7.192;2023-09-12T03:35:24;10.20;;;4.82;;
35959;SDS011;22043;50.970;7.192;2023-09-12T03:37:50;8.43;;;3.78;;
35959;SDS011;22043;50.970;7.192;2023-09-12T03:40:16;6.25;;;3.60;;
35959;SDS011;22043;50.970;7.192;2023-09-12T03:42:41;7.22;;;3.83;;
35959;SDS011;22043;50.970;7.192;2023-09-12T03:45:07;9.48;;;4.13;;
35959;SDS011;22043;50.970;7.192;2023-09-12T03:47:33;8.55;;;4.35;;
35959;SDS011;22043;50.970;7.192;2023-09-12T03:49:58;5.85;;;3.53;;
35959;SDS011;22043;50.970;7.192;2023-09-12T03:52:24;8.40;;;3.42;;
35959;SDS011;22043;50.970;7.192;2023-09-12T03:54:49;7.75;;;3.58;;
35959;SDS011;22043;50.970;7.192;2023-09-12T03:57:15;8.02;;;3.20;;
35959;SDS011;22043;50.970;7.192;2023-09-12T03:59:41;6.60;;;3.00;;
35959;SDS011;22043;50.970;7.192;2023-09-12T04:02:06;6.70;;;3.40;;
35959;SDS011;22043;50.970;7.192;2023-09-12T04:04:32;5.75;;;3.17;;
35959;SDS011;22043;50.970;7.192;2023-09-12T04:06:58;6.90;;;2.97;;
35959;SDS011;22043;50.970;7.192;2023-09-12T04:09:23;7.28;;;2.88;;
35959;SDS011;22043;50.970;7.192;2023-09-12T04:11:49;5.47;;;3.47;;
35959;SDS011;22043;50.970;7.192;2023-09-12T04:14:14;7.13;;;2.90;;
35959;SDS011;22043;50.970;7.192;2023-09-12T04:16:40;5.90;;;3.15;;
35959;SDS011;22043;50.970;7.192;2023-09-12T04:19:05;10.05;;;3.40;;
35959;SDS011;22043;50.970;7.192;2023-09-12T04:21:31;7.75;;;3.38;;
35959;SDS011;22043;50.970;7.192;2023-09-12T04:23:57;7.22;;;2.75;;
35959;SDS011;22043;50.970;7.192;2023-09-12T04:26:22;8.40;;;3.78;;
35959;SDS011;22043;50.970;7.192;2023-09-12T04:28:48;6.70;;;3.30;;
35959;SDS011;22043;50.970;7.192;2023-09-12T04:31:13;4.90;;;2.97;;
35959;SDS011;22043;50.970;7.192;2023-09-12T04:33:39;7.72;;;3.22;;
35959;SDS011;22043;50.970;7.192;2023-09-12T04:36:04;6.68;;;3.30;;
35959;SDS011;22043;50.970;7.192;2023-09-12T04:38:30;5.68;;;2.90;;
35959;SDS011;22043;50.970;7.192;2023-09-12T04:40:56;8.35;;;3.20;;
35959;SDS011;22043;50.970;7.192;2023-09-12T04:43:23;7.30;;;3.08;;
35959;SDS011;22043;50.970;7.192;2023-09-12T04:45:48;8.18;;;3.42;;
35959;SDS011;22043;50.970;7.192;2023-09-12T04:48:14;6.53;;;3.40;;
35959;SDS011;22043;50.970;7.192;2023-09-12T04:50:40;6.68;;;3.22;;
35959;SDS011;22043;50.970;7.192;2023-09-12T04:53:07;6.10;;;3.08;;
35959;SDS011;22043;50.970;7.192;2023-09-12T04:55:32;6.60;;;2.95;;
35959;SDS011;22043;50.970;7.192;2023-09-12T04:58:01;7.35;;;3.40;;
35959;SDS011;22043;50.970;7.192;2023-09-12T05:00:26;8.88;;;3.40;;
35959;SDS011;22043;50.970;7.192;2023-09-12T05:02:51;5.97;;;3.67;;
35959;SDS011;22043;50.970;7.192;2023-09-12T05:05:17;6.85;;;3.45;;
35959;SDS011;22043;50.970;7.192;2023-09-12T05:07:42;7.60;;;3.85;;
35959;SDS011;22043;50.970;7.192;2023-09-12T05:10:08;5.45;;;3.33;;
35959;SDS011;22043;50.970;7.192;2023-09-12T05:12:33;10.73;;;3.40;;
35959;SDS011;22043;50.970;7.192;2023-09-12T05:14:59;7.63;;;3.20;;
35959;SDS011;22043;50.970;7.192;2023-09-12T05:17:24;6.82;;;3.40;;
35959;SDS011;22043;50.970;7.192;2023-09-12T05:19:50;8.68;;;3.97;;
35959;SDS011;22043;50.970;7.192;2023-09-12T05:22:16;8.18;;;4.22;;
35959;SDS011;22043;50.970;7.192;2023-09-12T05:24:41;10.40;;;4.18;;
35959;SDS011;22043;50.970;7.192;2023-09-12T05:27:07;5.57;;;3.35;;
35959;SDS011;22043;50.970;7.192;2023-09-12T05:29:32;8.05;;;3.97;;
35959;SDS011;22043;50.970;7.192;2023-09-12T05:31:58;5.97;;;3.42;;
35959;SDS011;22043;50.970;7.192;2023-09-12T05:34:23;6.43;;;3.72;;
35959;SDS011;22043;50.970;7.192;2023-09-12T05:36:48;7.47;;;3.40;;
35959;SDS011;22043;50.970;7.192;2023-09-12T05:39:14;10.40;;;4.18;;
35959;SDS011;22043;50.970;7.192;2023-09-12T05:41:39;5.20;;;3.13;;
35959;SDS011;22043;50.970;7.192;2023-09-12T05:44:05;7.40;;;3.55;;
35959;SDS011;22043;50.970;7.192;2023-09-12T05:46:30;5.20;;;3.38;;
35959;SDS011;22043;50.970;7.192;2023-09-12T05:48:56;7.30;;;3.33;;
35959;SDS011;22043;50.970;7.192;2023-09-12T05:51:22;6.80;;;2.97;;
35959;SDS011;22043;50.970;7.192;2023-09-12T05:53:47;7.32;;;3.38;;
35959;SDS011;22043;50.970;7.192;2023-09-12T05:56:12;6.32;;;2.67;;
35959;SDS011;22043;50.970;7.192;2023-09-12T05:58:38;7.38;;;3.40;;
35959;SDS011;22043;50.970;7.192;2023-09-12T06:01:08;8.38;;;3.45;;
35959;SDS011;22043;50.970;7.192;2023-09-12T06:03:34;9.05;;;3.95;;
35959;SDS011;22043;50.970;7.192;2023-09-12T06:05:59;8.90;;;3.88;;
35959;SDS011;22043;50.970;7.192;2023-09-12T06:08:25;7.43;;;3.05;;
35959;SDS011;22043;50.970;7.192;2023-09-12T06:10:50;4.50;;;2.97;;
35959;SDS011;22043;50.970;7.192;2023-09-12T06:13:19;6.93;;;3.47;;
35959;SDS011;22043;50.970;7.192;2023-09-12T06:15:44;5.72;;;3.17;;
35959;SDS011;22043;50.970;7.192;2023-09-12T06:18:10;7.35;;;2.97;;
35959;SDS011;22043;50.970;7.192;2023-09-12T06:20:35;8.20;;;2.67;;
35959;SDS011;22043;50.970;7.192;2023-09-12T06:23:01;4.95;;;3.10;;
35959;SDS011;22043;50.970;7.192;2023-09-12T06:25:26;6.63;;;2.97;;
35959;SDS011;22043;50.970;7.192;2023-09-12T06:27:54;8.57;;;4.07;;
35959;SDS011;22043;50.970;7.192;2023-09-12T06:30:19;6.60;;;3.13;;
35959;SDS011;22043;50.970;7.192;2023-09-12T06:32:45;6.68;;;3.22;;
35959;SDS011;22043;50.970;7.192;2023-09-12T06:35:10;6.43;;;3.30;;
35959;SDS011;22043;50.970;7.192;2023-09-12T06:37:37;5.07;;;3.08;;
35959;SDS011;22043;50.970;7.192;2023-09-12T06:40:03;5.25;;;3.00;;
35959;SDS011;22043;50.970;7.192;2023-09-12T06:42:29;5.25;;;3.20;;
35959;SDS011;22043;50.970;7.192;2023-09-12T06:44:54;4.80;;;2.45;;
35959;SDS011;22043;50.970;7.192;2023-09-12T06:47:19;7.22;;;3.50;;
35959;SDS011;22043;50.970;7.192;2023-09-12T06:49:45;4.40;;;2.72;;
35959;SDS011;22043;50.970;7.192;2023-09-12T06:52:10;5.47;;;2.90;;
35959;SDS011;22043;50.970;7.192;2023-09-12T06:54:36;5.10;;;3.17;;
35959;SDS011;22043;50.970;7.192;2023-09-12T06:57:01;8.02;;;2.60;;
35959;SDS011;22043;50.970;7.192;2023-09-12T06:59:27;9.57;;;3.40;;
35959;SDS011;22043;50.970;7.192;2023-09-12T07:01:52;7.80;;;3.15;;
35959;SDS011;22043;50.970;7.192;2023-09-12T07:04:18;5.47;;;2.83;;
35959;SDS011;22043;50.970;7.192;2023-09-12T07:06:43;7.40;;;3.25;;
35959;SDS011;22043;50.970;7.192;2023-09-12T07:09:09;7.68;;;3.38;;
35959;SDS011;22043;50.970;7.192;2023-09-12T07:11:36;6.47;;;3.28;;
35959;SDS011;22043;50.970;7.192;2023-09-12T07:14:02;5.22;;;2.95;;
35959;SDS011;22043;50.970;7.192;2023-09-12T07:16:29;6.03;;;3.43;;
35959;SDS011;22043;50.970;7.192;2023-09-12T07:18:55;10.25;;;3.40;;
35959;SDS011;22043;50.970;7.192;2023-09-12T07:21:21;5.35;;;3.03;;
35959;SDS011;22043;50.970;7.192;2023-09-12T07:23:47;6.90;;;3.42;;
35959;SDS011;22043;50.970;7.192;2023-09-12T07:26:13;8.65;;;3.90;;
35959;SDS011;22043;50.970;7.192;2023-09-12T07:28:39;9.13;;;3.83;;
35959;SDS011;22043;50.970;7.192;2023-09-12T07:31:04;8.38;;;3.47;;
35959;SDS011;22043;50.970;7.192;2023-09-12T07:33:30;9.15;;;3.17;;
35959;SDS011;22043;50.970;7.192;2023-09-12T07:35:55;5.97;;;3.22;;
35959;SDS011;22043;50.970;7.192;2023-09-12T07:38:21;6.90;;;3.20;;
35959;SDS011;22043;50.970;7.192;2023-09-12T07:40:46;6.57;;;3.83;;
35959;SDS011;22043;50.970;7.192;2023-09-12T07:43:12;10.27;;;3.85;;
35959;SDS011;22043;50.970;7.192;2023-09-12T07:45:37;11.27;;;4.05;;
35959;SDS011;22043;50.970;7.192;2023-09-12T07:48:06;7.35;;;3.80;;
35959;SDS011;22043;50.970;7.192;2023-09-12T07:50:33;9.18;;;4.38;;
35959;SDS011;22043;50.970;7.192;2023-09-12T07:52:58;6.15;;;3.65;;
35959;SDS011;22043;50.970;7.192;2023-09-12T07:55:24;6.97;;;3.83;;
35959;SDS011;22043;50.970;7.192;2023-09-12T07:57:49;9.50;;;4.40;;
35959;SDS011;22043;50.970;7.192;2023-09-12T08:00:14;10.52;;;4.38;;
35959;SDS011;22043;50.970;7.192;2023-09-12T08:02:42;10.73;;;3.80;;
35959;SDS011;22043;50.970;7.192;2023-09-12T08:05:07;5.30;;;3.10;;
35959;SDS011;22043;50.970;7.192;2023-09-12T08:07:33;6.63;;;3.53;;
35959;SDS011;22043;50.970;7.192;2023-09-12T08:09:59;6.97;;;3.85;;
35959;SDS011;22043;50.970;7.192;2023-09-12T08:12:26;8.93;;;3.80;;
35959;SDS011;22043;50.970;7.192;2023-09-12T08:14:52;8.32;;;4.28;;
35959;SDS011;22043;50.970;7.192;2023-09-12T08:17:18;7.68;;;4.13;;
35959;SDS011;22043;50.970;7.192;2023-09-12T08:19:44;11.93;;;4.97;;
35959;SDS011;22043;50.970;7.192;2023-09-12T08:22:10;9.15;;;3.97;;
35959;SDS011;22043;50.970;7.192;2023-09-12T08:24:36;8.77;;;4.53;;
35959;SDS011;22043;50.970;7.192;2023-09-12T08:27:02;7.35;;;4.32;;
35959;SDS011;22043;50.970;7.192;2023-09-12T08:29:28;8.40;;;4.35;;
35959;SDS011;22043;50.970;7.192;2023-09-12T08:31:54;11.18;;;4.75;;
35959;SDS011;22043;50.970;7.192;2023-09-12T08:34:20;9.70;;;5.13;;
35959;SDS011;22043;50.970;7.192;2023-09-12T08:36:45;7.70;;;4.22;;
35959;SDS011;22043;50.970;7.192;2023-09-12T08:39:12;9.50;;;4.43;;
35959;SDS011;22043;50.970;7.192;2023-09-12T08:41:39;9.32;;;5.43;;
35959;SDS011;22043;50.970;7.192;2023-09-12T08:44:04;8.55;;;3.97;;
35959;SDS011;22043;50.970;7.192;2023-09-12T08:46:33;9.30;;;4.43;;
35959;SDS011;22043;50.970;7.192;2023-09-12T08:48:58;10.25;;;5.53;;
35959;SDS011;22043;50.970;7.192;2023-09-12T08:51:24;8.35;;;4.85;;
35959;SDS011;22043;50.970;7.192;2023-09-12T08:53:52;9.57;;;5.25;;
35959;SDS011;22043;50.970;7.192;2023-09-12T08:56:18;8.63;;;4.43;;
35959;SDS011;22043;50.970;7.192;2023-09-12T08:58:44;11.23;;;4.75;;
35959;SDS011;22043;50.970;7.192;2023-09-12T09:01:10;7.75;;;4.65;;
35959;SDS011;22043;50.970;7.192;2023-09-12T09:03:38;9.80;;;5.47;;
35959;SDS011;22043;50.970;7.192;2023-09-12T09:06:05;10.77;;;4.55;;
35959;SDS011;22043;50.970;7.192;2023-09-12T09:08:31;9.40;;;4.97;;
35959;SDS011;22043;50.970;7.192;2023-09-12T09:10:57;8.30;;;4.78;;
35959;SDS011;22043;50.970;7.192;2023-09-12T09:13:23;7.30;;;5.05;;
35959;SDS011;22043;50.970;7.192;2023-09-12T09:15:49;9.05;;;5.40;;
35959;SDS011;22043;50.970;7.192;2023-09-12T09:18:14;9.32;;;5.68;;
35959;SDS011;22043;50.970;7.192;2023-09-12T09:20:40;10.70;;;5.38;;
35959;SDS011;22043;50.970;7.192;2023-09-12T09:23:07;10.88;;;4.88;;
35959;SDS011;22043;50.970;7.192;2023-09-12T09:25:36;10.85;;;5.20;;
35959;SDS011;22043;50.970;7.192;2023-09-12T09:28:04;13.40;;;5.72;;
35959;SDS011;22043;50.970;7.192;2023-09-12T09:30:40;10.55;;;5.47;;
35959;SDS011;22043;50.970;7.192;2023-09-12T09:33:07;11.77;;;4.78;;
35959;SDS011;22043;50.970;7.192;2023-09-12T09:35:32;9.40;;;4.55;;
35959;SDS011;22043;50.970;7.192;2023-09-12T09:37:58;10.38;;;5.82;;
35959;SDS011;22043;50.970;7.192;2023-09-12T09:40:24;8.63;;;5.05;;
35959;SDS011;22043;50.970;7.192;2023-09-12T09:42:53;9.25;;;5.55;;
35959;SDS011;22043;50.970;7.192;2023-09-12T09:45:19;13.15;;;5.22;;
35959;SDS011;22043;50.970;7.192;2023-09-12T09:47:44;10.40;;;4.90;;
35959;SDS011;22043;50.970;7.192;2023-09-12T09:50:13;9.95;;;5.30;;
35959;SDS011;22043;50.970;7.192;2023-09-12T09:52:39;14.80;;;5.50;;
35959;SDS011;22043;50.970;7.192;2023-09-12T09:55:08;10.15;;;5.47;;
35959;SDS011;22043;50.970;7.192;2023-09-12T09:57:36;10.15;;;6.00;;
35959;SDS011;22043;50.970;7.192;2023-09-12T10:00:03;15.57;;;7.60;;
35959;SDS011;22043;50.970;7.192;2023-09-12T10:02:33;11.95;;;6.13;;
35959;SDS011;22043;50.970;7.192;2023-09-12T10:05:02;12.50;;;6.43;;
35959;SDS011;22043;50.970;7.192;2023-09-12T10:07:30;14.07;;;7.43;;
35959;SDS011;22043;50.970;7.192;2023-09-12T10:09:58;11.82;;;6.97;;
35959;SDS011;22043;50.970;7.192;2023-09-12T10:12:26;18.17;;;7.90;;
35959;SDS011;22043;50.970;7.192;2023-09-12T10:14:54;13.23;;;7.50;;
35959;SDS011;22043;50.970;7.192;2023-09-12T10:17:19;10.85;;;6.68;;
35959;SDS011;22043;50.970;7.192;2023-09-12T10:19:54;12.60;;;8.30;;
35959;SDS011;22043;50.970;7.192;2023-09-12T10:22:21;14.45;;;7.50;;
35959;SDS011;22043;50.970;7.192;2023-09-12T10:24:49;10.00;;;6.35;;
35959;SDS011;22043;50.970;7.192;2023-09-12T10:27:15;13.80;;;6.50;;
35959;SDS011;22043;50.970;7.192;2023-09-12T10:29:45;11.05;;;5.57;;
35959;SDS011;22043;50.970;7.192;2023-09-12T10:32:12;9.95;;;5.95;;
35959;SDS011;22043;50.970;7.192;2023-09-12T10:34:39;9.45;;;6.22;;
35959;SDS011;22043;50.970;7.192;2023-09-12T10:39:32;11.65;;;6.10;;
35959;SDS011;22043;50.970;7.192;2023-09-12T10:41:58;11.05;;;5.20;;
35959;SDS011;22043;50.970;7.192;2023-09-12T10:44:24;11.35;;;5.82;;
35959;SDS011;22043;50.970;7.192;2023-09-12T10:46:50;11.07;;;5.57;;
35959;SDS011;22043;50.970;7.192;2023-09-12T10:49:16;12.82;;;5.88;;
35959;SDS011;22043;50.970;7.192;2023-09-12T10:51:44;13.38;;;6.30;;
35959;SDS011;22043;50.970;7.192;2023-09-12T10:54:14;9.20;;;5.25;;
35959;SDS011;22043;50.970;7.192;2023-09-12T10:56:41;12.20;;;6.63;;
35959;SDS011;22043;50.970;7.192;2023-09-12T11:01:36;11.68;;;6.00;;
35959;SDS011;22043;50.970;7.192;2023-09-12T11:06:46;12.35;;;6.55;;
35959;SDS011;22043;50.970;7.192;2023-09-12T11:09:16;12.23;;;5.83;;
35959;SDS011;22043;50.970;7.192;2023-09-12T11:11:45;9.68;;;5.88;;
35959;SDS011;22043;50.970;7.192;2023-09-12T11:14:12;15.38;;;5.63;;
35959;SDS011;22043;50.970;7.192;2023-09-12T11:16:37;8.27;;;5.40;;
35959;SDS011;22043;50.970;7.192;2023-09-12T11:19:20;11.32;;;5.95;;
35959;SDS011;22043;50.970;7.192;2023-09-12T11:21:51;15.57;;;7.68;;
35959;SDS011;22043;50.970;7.192;2023-09-12T11:24:18;11.60;;;7.10;;
35959;SDS011;22043;50.970;7.192;2023-09-12T11:27:01;10.75;;;5.80;;
35959;SDS011;22043;50.970;7.192;2023-09-12T11:29:30;11.60;;;5.72;;
35959;SDS011;22043;50.970;7.192;2023-09-12T11:32:01;13.50;;;5.93;;
35959;SDS011;22043;50.970;7.192;2023-09-12T11:34:28;10.90;;;5.68;;
35959;SDS011;22043;50.970;7.192;2023-09-12T11:36:55;10.63;;;5.95;;
35959;SDS011;22043;50.970;7.192;2023-09-12T11:39:31;8.18;;;5.47;;
35959;SDS011;22043;50.970;7.192;2023-09-12T11:42:00;10.88;;;5.55;;
35959;SDS011;22043;50.970;7.192;2023-09-12T11:44:26;8.52;;;5.38;;
35959;SDS011;22043;50.970;7.192;2023-09-12T11:46:52;10.05;;;5.55;;
35959;SDS011;22043;50.970;7.192;2023-09-12T11:49:18;12.07;;;5.40;;
35959;SDS011;22043;50.970;7.192;2023-09-12T11:51:51;10.82;;;5.03;;
35959;SDS011;22043;50.970;7.192;2023-09-12T11:54:18;9.45;;;4.95;;
35959;SDS011;22043;50.970;7.192;2023-09-12T11:56:46;8.18;;;5.28;;
35959;SDS011;22043;50.970;7.192;2023-09-12T11:59:12;8.68;;;5.13;;
35959;SDS011;22043;50.970;7.192;2023-09-12T12:01:37;10.00;;;5.65;;
35959;SDS011;22043;50.970;7.192;2023-09-12T12:04:03;11.57;;;4.88;;
35959;SDS011;22043;50.970;7.192;2023-09-12T12:06:29;7.32;;;4.57;;
35959;SDS011;22043;50.970;7.192;2023-09-12T12:08:55;7.15;;;4.75;;
35959;SDS011;22043;50.970;7.192;2023-09-12T12:11:20;10.52;;;4.93;;
35959;SDS011;22043;50.970;7.192;2023-09-12T12:13:46;10.02;;;5.50;;
35959;SDS011;22043;50.970;7.192;2023-09-12T12:16:17;7.90;;;5.00;;
35959;SDS011;22043;50.970;7.192;2023-09-12T12:18:43;10.10;;;5.68;;
35959;SDS011;22043;50.970;7.192;2023-09-12T12:21:09;10.15;;;4.80;;
35959;SDS011;22043;50.970;7.192;2023-09-12T12:23:34;8.57;;;4.53;;
35959;SDS011;22043;50.970;7.192;2023-09-12T12:26:07;7.97;;;5.20;;
35959;SDS011;22043;50.970;7.192;2023-09-12T12:28:34;10.05;;;4.88;;
35959;SDS011;22043;50.970;7.192;2023-09-12T12:31:00;7.85;;;4.55;;
35959;SDS011;22043;50.970;7.192;2023-09-12T12:33:25;8.93;;;4.50;;
35959;SDS011;22043;50.970;7.192;2023-09-12T12:36:04;7.05;;;3.83;;
35959;SDS011;22043;50.970;7.192;2023-09-12T12:38:34;10.70;;;4.55;;
35959;SDS011;22043;50.970;7.192;2023-09-12T12:41:00;7.32;;;4.40;;
35959;SDS011;22043;50.970;7.192;2023-09-12T12:43:26;9.75;;;4.50;;
35959;SDS011;22043;50.970;7.192;2023-09-12T12:45:53;6.60;;;4.35;;
35959;SDS011;22043;50.970;7.192;2023-09-12T12:48:31;10.45;;;4.88;;
35959;SDS011;22043;50.970;7.192;2023-09-12T12:51:17;7.00;;;4.35;;
35959;SDS011;22043;50.970;7.192;2023-09-12T12:53:43;9.52;;;4.40;;
35959;SDS011;22043;50.970;7.192;2023-09-12T12:56:14;8.80;;;4.88;;
35959;SDS011;22043;50.970;7.192;2023-09-12T12:58:47;9.23;;;4.57;;
35959;SDS011;22043;50.970;7.192;2023-09-12T13:01:23;9.43;;;4.50;;
35959;SDS011;22043;50.970;7.192;2023-09-12T13:03:48;12.10;;;4.70;;
35959;SDS011;22043;50.970;7.192;2023-09-12T13:06:18;6.88;;;4.28;;
35959;SDS011;22043;50.970;7.192;2023-09-12T13:08:44;9.18;;;4.85;;
35959;SDS011;22043;50.970;7.192;2023-09-12T13:11:11;7.88;;;4.50;;
35959;SDS011;22043;50.970;7.192;2023-09-12T13:13:38;9.85;;;4.90;;
35959;SDS011;22043;50.970;7.192;2023-09-12T13:16:04;11.15;;;5.43;;
35959;SDS011;22043;50.970;7.192;2023-09-12T13:18:33;6.22;;;4.28;;
35959;SDS011;22043;50.970;7.192;2023-09-12T13:20:59;8.68;;;4.60;;
35959;SDS011;22043;50.970;7.192;2023-09-12T13:23:24;7.03;;;4.07;;
35959;SDS011;22043;50.970;7.192;2023-09-12T13:25:50;15.68;;;7.18;;
35959;SDS011;22043;50.970;7.192;2023-09-12T13:28:16;11.10;;;5.68;;
35959;SDS011;22043;50.970;7.192;2023-09-12T13:30:41;16.63;;;5.70;;
35959;SDS011;22043;50.970;7.192;2023-09-12T13:33:07;20.48;;;7.80;;
35959;SDS011;22043;50.970;7.192;2023-09-12T13:35:32;10.90;;;4.65;;
35959;SDS011;22043;50.970;7.192;2023-09-12T13:37:58;9.15;;;4.90;;
35959;SDS011;22043;50.970;7.192;2023-09-12T13:40:23;8.95;;;4.72;;
35959;SDS011;22043;50.970;7.192;2023-09-12T13:42:49;8.00;;;4.38;;
35959;SDS011;22043;50.970;7.192;2023-09-12T13:45:14;10.40;;;4.88;;
35959;SDS011;22043;50.970;7.192;2023-09-12T13:47:39;8.50;;;4.28;;
35959;SDS011;22043;50.970;7.192;2023-09-12T13:50:06;7.40;;;4.65;;
35959;SDS011;22043;50.970;7.192;2023-09-12T13:52:32;7.22;;;4.20;;
35959;SDS011;22043;50.970;7.192;2023-09-12T13:54:57;7.22;;;3.67;;
35959;SDS011;22043;50.970;7.192;2023-09-12T13:57:23;7.63;;;4.13;;
35959;SDS011;22043;50.970;7.192;2023-09-12T13:59:48;8.65;;;4.88;;
35959;SDS011;22043;50.970;7.192;2023-09-12T14:02:16;7.80;;;4.68;;
35959;SDS011;22043;50.970;7.192;2023-09-12T14:04:43;7.22;;;4.68;;
35959;SDS011;22043;50.970;7.192;2023-09-12T14:07:08;9.45;;;4.05;;
35959;SDS011;22043;50.970;7.192;2023-09-12T14:09:34;7.63;;;3.97;;
35959;SDS011;22043;50.970;7.192;2023-09-12T14:11:59;11.65;;;4.03;;
35959;SDS011;22043;50.970;7.192;2023-09-12T14:14:25;8.98;;;4.70;;
35959;SDS011;22043;50.970;7.192;2023-09-12T14:16:50;8.82;;;3.97;;
35959;SDS011;22043;50.970;7.192;2023-09-12T14:19:16;6.38;;;3.75;;
35959;SDS011;22043;50.970;7.192;2023-09-12T14:21:41;9.30;;;4.05;;
35959;SDS011;22043;50.970;7.192;2023-09-12T14:26:34;7.13;;;3.97;;
35959;SDS011;22043;50.970;7.192;2023-09-12T14:28:59;6.88;;;3.75;;
35959;SDS011;22043;50.970;7.192;2023-09-12T14:31:25;9.13;;;4.05;;
35959;SDS011;22043;50.970;7.192;2023-09-12T14:33:50;8.70;;;4.22;;
35959;SDS011;22043;50.970;7.192;2023-09-12T14:36:17;10.60;;;4.10;;
35959;SDS011;22043;50.970;7.192;2023-09-12T14:38:42;7.57;;;4.15;;
35959;SDS011;22043;50.970;7.192;2023-09-12T14:41:11;5.97;;;3.90;;
35959;SDS011;22043;50.970;7.192;2023-09-12T14:43:37;6.63;;;3.92;;
35959;SDS011;22043;50.970;7.192;2023-09-12T14:46:03;6.88;;;4.13;;
35959;SDS011;22043;50.970;7.192;2023-09-12T14:48:30;11.02;;;4.18;;
35959;SDS011;22043;50.970;7.192;2023-09-12T14:50:59;10.00;;;4.30;;